AirNav   Advertisement
 
 590 users online  

16PN Oakdale Army Heliport
Oakdale, Pennsylvania, USA

GOING TO OAKDALE?


FAA INFORMATION EFFECTIVE 20 JULY 2017

Location

FAA Identifier: 16PN
Lat/Long: 40-23-18.2480N / 080-09-29.2050W
40-23.304133N / 080-09.486750W
40.3884022 / -80.1581125
(estimated)
Elevation: 1265 ft. / 386 m (estimated)
Variation: 07W (1985)
Time zone: UTC -4 (UTC -5 during Standard Time)
Zip code: 15071

Heliport Operations

Heliport use: Private use. Permission required prior to landing
Control tower: no
ARTCC: CLEVELAND CENTER
FSS: ALTOONA FLIGHT SERVICE STATION
Attendance: UNATNDD
Wind indicator: yes
Segmented circle: no

Heliport Communications

WX ASOS at PIT (7 nm NW): PHONE 412-472-0145
WX AWOS-A at 42PN (8 nm NE): PHONE 412-442-2213
WX ASOS at AGC (11 nm E): PHONE 412-466-8968
WX AWOS-3 at AFJ (16 nm S): 119.175 (724-228-3529)
WX AWOS-3 at FWQ (18 nm SE): 118.475 (724-379-5815)

Nearby radio navigation aids

VOR radial/distance  VOR name  Freq  Var
MMJr173/6.2MONTOUR VORTAC112.0008W
AGCr330/8.5ALLEGHENY VOR/DME110.0009W
HLGr075/20.3WHEELING VOR/DME112.2007W
EWCr183/26.3ELLWOOD CITY VORTAC115.8008W
AIRr061/37.5BELLAIRE VOR/DME117.1007W

 
NDB name  Hdg/Dist  Freq  Var  ID
CASTLE172/39.827209WUCP ..- -.-. .--.

Heliport Services

Runway Information

Helipad H1

Dimensions: 100 x 100 ft. / 30 x 30 m
Surface: asphalt
Traffic pattern: leftleft

Heliport Ownership and Management from official FAA records

Ownership: U.S. Army
Owner: ARMY
CMDR, HQ-C.E. KELLY SUPT FAC
OAKDALE, PA 15071-5001
Phone 412-777-1173
Manager: MIL PHONE ON HELIPAD SIDE OF FENCE; CALL 554 FOR ACCESS THRU FENCE.

Additional Remarks

SECURITY FENCE-L 49 FT N OF HELIPAD; 131 FT RADIO TWR-L 82 FT NW.
APCH/DEP FM SE TO W TO AVOID OVERFLIGHT OF MIL FAC.

Instrument Procedures

There are no published instrument procedures at 16PN.

Some nearby airports with instrument procedures:

KPIT - Pittsburgh International Airport (7 nm NW)
KAGC - Allegheny County Airport (11 nm E)
KAFJ - Washington County Airport (16 nm S)
KFWQ - Rostraver Airport (18 nm SE)
KPJC - Zelienople Municipal Airport (25 nm N)
 
Loc | Ops | Rwys | IFR | FBO | Links
Com | Nav | Svcs | Stats | Notes


 
Area around 16PN (Oakdale Army Heliport)
 
Road maps at: MapQuest Bing Google
 
Aerial photo
No photo
 
Sectional chart

 
Airport distance calculator
Flying to Oakdale Army Heliport? Find the distance to fly.

From to 16PN

Sunrise and sunset
Times for 24-Jul-2017
 Local
(UTC-4)
 Zulu
(UTC)
Morning civil twilight05:4009:40
Sunrise06:1210:12
Sunset20:4200:42
Evening civil twilight21:1401:14

Current date and time
Zulu (UTC)  24-Jul-2017 11:32:50
Local (UTC-4)  24-Jul-2017 07:32:50
 
METAR
KPIT 
8nm NW 
241051Z 25005KT 10SM BKN007 BKN029 19/19 A2985 RMK AO2 SLP106 T01940189
KAGC 
11nm E 
241053Z 27007KT 7SM OVC005 19/17 A2986 RMK AO2 SLP105 T01940172
KAFJ 
17nm S 
241115Z AUTO 27003KT 10SM OVC006 19/17 A2987 RMK AO1
KP53 
18nm SE 
241056Z AUTO 36005KT 14/13 A3006 RMK AO1 SLP181 T01390133
TAF
KPIT 
8nm NW 
240856Z 2409/2512 25004KT P6SM BKN015 FM241400 26006KT P6SM SCT250 FM241700 27008KT P6SM VCTS BKN050CB FM242300 30008KT P6SM SCT090
KAGC 
11nm E 
240856Z 2409/2506 24005KT P6SM BKN015 FM241400 26006KT P6SM SCT250 FM241700 26008KT P6SM VCTS BKN050CB FM242300 29008KT P6SM SCT090
NOTAMs
Click for the latest NOTAMs
NOTAMs are issued by the DoD/FAA and will open in a separate window not controlled by AirNav.

 

 
 

Would you like to see your business listed on this page?

 If your business provides an interesting product or service to pilots, flight crews, aircraft, or users of the Oakdale Army Heliport, you should consider listing it here.  To start the listing process, click on the button below
 
Add a business
 

Other Pages about Oakdale Army Heliport

Update a link
 
Copyright © AirNav, LLC. All rights reserved. Privacy Policy  Contact